createdAt,value
2023-01-04T00:01:32.771Z,30.92
2023-01-04T00:04:00.471Z,32.05
2023-01-04T00:06:27.807Z,33.50
2023-01-04T00:08:57.682Z,29.20
2023-01-04T00:11:25.141Z,30.77
2023-01-04T00:13:55.779Z,30.65
2023-01-04T00:16:25.572Z,32.70
2023-01-04T00:18:56.518Z,29.38
2023-01-04T00:21:31.065Z,31.58
2023-01-04T00:24:00.437Z,34.28
2023-01-04T00:26:33.263Z,33.15
2023-01-04T00:29:06.179Z,32.60
2023-01-04T00:31:34.804Z,33.03
2023-01-04T00:34:04.092Z,35.17
2023-01-04T00:36:33.546Z,31.85
2023-01-04T00:39:08.430Z,31.08
2023-01-04T00:42:01.710Z,32.03
2023-01-04T00:44:30.240Z,32.75
2023-01-04T00:46:59.250Z,35.35
2023-01-04T00:49:27.648Z,33.35
2023-01-04T00:51:55.831Z,32.53
2023-01-04T00:54:23.769Z,32.88
2023-01-04T00:56:50.913Z,35.80
2023-01-04T00:59:21.192Z,34.25
2023-01-04T01:01:49.120Z,30.48
2023-01-04T01:04:19.133Z,29.70
2023-01-04T01:06:46.915Z,30.00
2023-01-04T01:09:15.157Z,35.00
2023-01-04T01:11:42.424Z,32.80
2023-01-04T01:14:16.811Z,30.60
2023-01-04T01:16:55.246Z,31.77
2023-01-04T01:19:25.171Z,28.95
2023-01-04T01:21:53.832Z,33.05
2023-01-04T01:24:21.982Z,33.30
2023-01-04T01:26:49.396Z,31.90
2023-01-04T01:29:16.460Z,28.98
2023-01-04T01:31:44.449Z,29.85
2023-01-04T01:34:11.675Z,25.55
2023-01-04T01:36:39.022Z,27.45
2023-01-04T01:39:06.813Z,30.00
2023-01-04T01:41:36.139Z,30.55
2023-01-04T01:44:26.599Z,25.85
2023-01-04T01:46:55.445Z,26.50
2023-01-04T01:49:33.008Z,26.42
2023-01-04T01:52:05.298Z,23.92
2023-01-04T01:54:48.728Z,23.67
2023-01-04T01:57:22.608Z,27.90
2023-01-04T01:59:53.462Z,26.93
2023-01-04T02:02:21.519Z,23.40
2023-01-04T02:04:51.513Z,26.35
2023-01-04T02:07:24.308Z,27.08
2023-01-04T02:09:51.861Z,26.05
2023-01-04T02:12:19.199Z,20.90
2023-01-04T02:14:49.122Z,22.58
2023-01-04T02:17:55.184Z,21.25
2023-01-04T02:23:29.471Z,23.45
2023-01-04T02:26:16.366Z,21.95
2023-01-04T02:29:06.881Z,23.58
2023-01-04T02:32:18.928Z,22.52
2023-01-04T02:35:02.175Z,24.75
2023-01-04T02:38:09.183Z,21.83
2023-01-04T02:41:05.178Z,25.67
2023-01-04T02:44:16.920Z,25.60
2023-01-04T02:46:48.818Z,26.95
2023-01-04T02:49:34.434Z,26.75
2023-01-04T02:52:01.703Z,26.58
2023-01-04T02:54:32.691Z,24.25
2023-01-04T02:57:18.553Z,25.17
2023-01-04T02:59:53.965Z,26.67
2023-01-04T03:03:01.286Z,23.83
2023-01-04T03:06:18.125Z,22.77
2023-01-04T03:11:36.734Z,21.65
2023-01-04T03:14:31.978Z,20.38
2023-01-04T03:17:04.382Z,20.48
2023-01-04T03:19:52.029Z,20.42
2023-01-04T03:23:02.871Z,21.48
2023-01-04T03:26:00.561Z,21.67
2023-01-04T03:28:51.895Z,21.58
2023-01-04T03:31:54.703Z,21.27
2023-01-04T03:34:40.766Z,23.52
2023-01-04T03:37:14.892Z,22.08
2023-01-04T03:40:03.763Z,23.73
2023-01-04T03:43:15.414Z,25.85
2023-01-04T03:46:15.830Z,25.23
2023-01-04T03:48:53.799Z,29.55
2023-01-04T03:51:26.864Z,27.27
2023-01-04T03:54:18.448Z,26.93
2023-01-04T03:56:46.785Z,26.88
2023-01-04T03:59:14.210Z,25.10
2023-01-04T04:01:44.231Z,26.67
2023-01-04T04:04:30.715Z,26.13
2023-01-04T04:07:16.545Z,25.80
2023-01-04T04:09:43.939Z,25.70
2023-01-04T04:12:11.332Z,28.45
2023-01-04T04:14:38.570Z,26.35
2023-01-04T04:17:06.106Z,28.55
2023-01-04T04:19:33.296Z,24.13
2023-01-04T04:22:00.499Z,25.00
2023-01-04T04:24:28.064Z,25.00
2023-01-04T04:26:56.330Z,26.00
2023-01-04T04:29:24.539Z,27.25
2023-01-04T04:31:52.131Z,25.70
2023-01-04T04:34:19.366Z,25.30
2023-01-04T04:36:47.399Z,24.67
2023-01-04T04:39:14.767Z,25.55
2023-01-04T04:41:42.160Z,25.45
2023-01-04T04:44:12.415Z,24.42
2023-01-04T04:46:39.810Z,25.65
2023-01-04T04:49:07.404Z,24.25
2023-01-04T04:51:35.577Z,25.55
2023-01-04T04:56:50.019Z,26.20
2023-01-04T04:59:22.528Z,25.10
2023-01-04T05:01:49.881Z,25.45
2023-01-04T05:04:19.726Z,25.63
2023-01-04T05:06:49.722Z,28.23
2023-01-04T05:09:17.171Z,26.85
2023-01-04T05:12:02.848Z,30.02
2023-01-04T05:14:30.110Z,26.38
2023-01-04T05:16:57.413Z,25.67
2023-01-04T05:19:24.913Z,26.27
2023-01-04T05:21:52.121Z,28.00
2023-01-04T05:24:20.378Z,25.02
2023-01-04T05:26:47.452Z,26.73
2023-01-04T05:29:34.481Z,26.48
2023-01-04T05:32:01.718Z,27.13
2023-01-04T05:34:28.923Z,27.63
2023-01-04T05:36:56.026Z,26.63
2023-01-04T05:39:23.241Z,25.02
2023-01-04T05:42:08.819Z,25.40
2023-01-04T05:44:36.155Z,26.05
2023-01-04T05:47:03.424Z,26.10
2023-01-04T05:49:30.720Z,25.42
2023-01-04T05:51:58.081Z,24.45
2023-01-04T05:54:25.512Z,26.58
2023-01-04T05:56:52.811Z,26.15
2023-01-04T05:59:19.894Z,23.98
2023-01-04T06:01:48.274Z,25.70
2023-01-04T06:04:15.473Z,25.05
2023-01-04T06:06:42.972Z,25.10
2023-01-04T06:09:10.083Z,24.08
2023-01-04T06:11:37.374Z,24.48
2023-01-04T06:14:04.642Z,27.25
2023-01-04T06:16:32.043Z,28.83
2023-01-04T06:18:59.909Z,27.98
2023-01-04T06:21:27.059Z,26.23
2023-01-04T06:23:54.652Z,27.33
2023-01-04T06:26:21.905Z,26.95
2023-01-04T06:28:49.044Z,27.38
2023-01-04T06:31:16.362Z,27.52
2023-01-04T06:33:43.689Z,26.02
2023-01-04T06:36:19.602Z,25.48
2023-01-04T06:38:48.738Z,30.08
2023-01-04T06:41:15.915Z,27.63
2023-01-04T06:43:43.171Z,29.95
2023-01-04T06:46:10.477Z,29.13
2023-01-04T06:48:37.692Z,29.83
2023-01-04T06:51:05.182Z,28.30
2023-01-04T06:53:32.417Z,27.27
2023-01-04T06:55:59.675Z,27.58
2023-01-04T06:58:27.157Z,28.00
2023-01-04T07:00:56.181Z,28.17
2023-01-04T07:03:23.616Z,25.70
2023-01-04T07:05:50.831Z,30.10
2023-01-04T07:08:18.102Z,25.80
2023-01-04T07:10:45.508Z,27.48
2023-01-04T07:13:13.027Z,25.63
2023-01-04T07:15:41.085Z,28.63
2023-01-04T07:18:10.191Z,28.60
2023-01-04T07:20:38.329Z,25.52
2023-01-04T07:23:06.987Z,26.05
2023-01-04T07:25:34.618Z,24.40
2023-01-04T07:28:01.958Z,25.92
2023-01-04T07:30:29.833Z,27.30
2023-01-04T07:32:57.478Z,26.85
2023-01-04T07:35:25.173Z,23.48
2023-01-04T07:37:58.165Z,28.30
2023-01-04T07:40:26.723Z,26.98
2023-01-04T07:42:57.185Z,24.20
2023-01-04T07:45:25.169Z,28.38
2023-01-04T07:47:53.194Z,27.25
2023-01-04T07:50:20.407Z,25.52
2023-01-04T07:52:47.868Z,25.00
2023-01-04T07:55:15.708Z,28.35
2023-01-04T07:57:43.717Z,25.55
2023-01-04T08:00:11.693Z,28.40
2023-01-04T08:02:41.991Z,25.25
2023-01-04T08:05:09.646Z,26.20
2023-01-04T08:07:36.859Z,22.20
2023-01-04T08:10:04.286Z,20.13
2023-01-04T08:12:31.621Z,27.98
2023-01-04T08:14:59.086Z,22.17
2023-01-04T08:17:26.180Z,20.75
2023-01-04T08:19:53.381Z,20.25
2023-01-04T08:22:20.501Z,21.65
2023-01-04T08:24:47.937Z,22.27
2023-01-04T08:27:15.016Z,21.13
2023-01-04T08:29:42.600Z,25.42
2023-01-04T08:32:09.776Z,24.02
2023-01-04T08:34:36.924Z,23.55
2023-01-04T08:37:04.068Z,23.45
2023-01-04T08:39:35.590Z,24.67
2023-01-04T08:42:17.979Z,22.80
2023-01-04T08:44:47.929Z,23.25
2023-01-04T08:47:15.301Z,26.60
2023-01-04T08:49:42.401Z,22.27
2023-01-04T08:52:10.214Z,21.30
2023-01-04T08:54:37.425Z,25.48
2023-01-04T08:57:04.660Z,21.88
2023-01-04T08:59:32.551Z,23.42
2023-01-04T09:02:05.376Z,23.63
2023-01-04T09:04:33.588Z,21.73
2023-01-04T09:07:00.953Z,21.48
2023-01-04T09:09:30.289Z,20.55
2023-01-04T09:11:57.805Z,20.42
2023-01-04T09:14:24.890Z,21.75
2023-01-04T09:16:52.015Z,24.75
2023-01-04T09:19:22.229Z,22.17
2023-01-04T09:21:51.147Z,20.40
2023-01-04T09:24:18.431Z,22.70
2023-01-04T09:26:47.585Z,20.38
2023-01-04T09:29:14.876Z,20.52
2023-01-04T09:31:42.237Z,21.70
2023-01-04T09:34:14.662Z,22.17
2023-01-04T09:36:44.727Z,20.83
2023-01-04T09:39:20.840Z,19.15
2023-01-04T09:41:55.823Z,21.40
2023-01-04T09:47:58.881Z,20.67
2023-01-04T09:53:11.300Z,20.65
2023-01-04T09:55:43.143Z,21.95
2023-01-04T09:58:24.285Z,19.63
2023-01-04T10:01:05.030Z,18.50
2023-01-04T10:03:37.208Z,18.13
2023-01-04T10:06:07.216Z,18.15
2023-01-04T10:08:34.906Z,16.80
2023-01-04T10:11:11.233Z,21.67
2023-01-04T10:13:58.333Z,18.40
2023-01-04T10:16:52.691Z,18.17
2023-01-04T10:22:42.492Z,18.05
2023-01-04T10:25:15.822Z,16.10
2023-01-04T10:27:52.643Z,18.73
2023-01-04T10:30:46.140Z,16.95
2023-01-04T10:33:17.381Z,15.48
2023-01-04T10:35:46.136Z,16.85
2023-01-04T10:38:20.184Z,14.05
2023-01-04T10:40:48.843Z,14.50
2023-01-04T10:44:11.179Z,18.77
2023-01-04T10:46:43.247Z,18.38
2023-01-04T10:49:19.200Z,16.27
2023-01-04T10:52:08.354Z,14.73
2023-01-04T10:55:08.082Z,13.07
2023-01-04T10:57:42.621Z,11.43
2023-01-04T11:00:31.357Z,13.68
2023-01-04T11:03:09.685Z,12.30
2023-01-04T11:06:03.189Z,14.77
2023-01-04T11:08:34.394Z,13.98
2023-01-04T11:11:11.444Z,15.07
2023-01-04T11:13:39.515Z,12.48
2023-01-04T11:16:07.865Z,11.40
2023-01-04T11:18:38.271Z,11.00
2023-01-04T11:21:12.495Z,12.20
2023-01-04T11:23:39.828Z,12.45
2023-01-04T11:26:18.326Z,9.35
2023-01-04T11:29:06.692Z,9.32
2023-01-04T11:32:16.568Z,10.85
2023-01-04T11:34:53.011Z,9.63
2023-01-04T11:37:41.335Z,10.00
2023-01-04T11:40:17.891Z,9.70
2023-01-04T11:42:47.715Z,9.48
2023-01-04T11:45:26.126Z,11.13
2023-01-04T11:47:56.095Z,9.55
2023-01-04T11:50:43.419Z,11.38
2023-01-04T11:53:31.534Z,9.85
2023-01-04T11:56:23.419Z,9.68
2023-01-04T11:59:06.257Z,7.40
2023-01-04T12:01:36.723Z,9.00
2023-01-04T12:04:27.671Z,8.45
2023-01-04T12:07:05.471Z,11.13
2023-01-04T12:09:33.130Z,13.90
2023-01-04T12:12:01.503Z,11.73
2023-01-04T12:14:35.737Z,10.65
2023-01-04T12:17:21.999Z,9.80
2023-01-04T12:19:53.985Z,10.52
2023-01-04T12:22:41.870Z,10.07
2023-01-04T12:25:24.333Z,8.45
2023-01-04T12:27:52.530Z,7.85
2023-01-04T12:30:38.820Z,9.02
2023-01-04T12:33:31.077Z,7.72
2023-01-04T12:36:16.412Z,9.25
2023-01-04T12:38:55.987Z,10.85
2023-01-04T12:42:03.964Z,9.02
2023-01-04T12:44:37.751Z,8.95
2023-01-04T12:47:40.667Z,9.27
2023-01-04T12:50:11.284Z,11.38
2023-01-04T12:55:45.033Z,12.57
2023-01-04T13:01:28.737Z,13.52
2023-01-04T13:04:24.041Z,10.15
2023-01-04T13:06:51.723Z,10.70
2023-01-04T13:09:25.175Z,11.90
2023-01-04T13:12:00.218Z,12.35
2023-01-04T13:14:36.452Z,9.70
2023-01-04T13:17:13.471Z,13.23
2023-01-04T13:19:42.054Z,12.57
2023-01-04T13:22:29.424Z,9.68
2023-01-04T13:24:59.514Z,14.15
2023-01-04T13:27:27.850Z,14.88
2023-01-04T13:29:55.269Z,16.67
2023-01-04T13:32:29.628Z,10.88
2023-01-04T13:35:15.139Z,12.20
2023-01-04T13:37:48.003Z,11.52
2023-01-04T13:40:35.777Z,8.77
2023-01-04T13:43:21.200Z,7.93
2023-01-04T13:46:21.042Z,8.60
2023-01-04T13:48:53.732Z,11.70
2023-01-04T13:51:38.390Z,9.05
2023-01-04T13:54:21.339Z,7.55
2023-01-04T13:56:55.268Z,10.80
2023-01-04T13:59:23.395Z,9.20
2023-01-04T14:01:51.515Z,9.90
2023-01-04T14:04:28.049Z,10.35
2023-01-04T14:07:00.190Z,13.15
2023-01-04T14:09:37.260Z,11.27
2023-01-04T14:12:43.996Z,9.70
2023-01-04T14:15:23.244Z,13.35
2023-01-04T14:17:53.466Z,13.70
2023-01-04T14:20:20.741Z,8.38
2023-01-04T14:22:47.824Z,9.88
2023-01-04T14:25:33.901Z,10.93
2023-01-04T14:28:22.861Z,11.18
2023-01-04T14:30:57.125Z,6.60
2023-01-04T14:33:28.077Z,9.70
2023-01-04T14:36:10.999Z,11.15
2023-01-04T14:38:44.139Z,11.27
2023-01-04T14:41:25.223Z,12.07
2023-01-04T14:44:03.778Z,7.25
2023-01-04T14:46:32.235Z,9.70
2023-01-04T14:48:59.680Z,9.93
2023-01-04T14:51:49.237Z,13.35
2023-01-04T14:54:24.324Z,8.73
2023-01-04T14:56:57.216Z,8.40
2023-01-04T14:59:25.569Z,8.50
2023-01-04T15:01:54.884Z,9.27
2023-01-04T15:04:22.438Z,12.10
2023-01-04T15:06:58.941Z,10.60
2023-01-04T15:09:27.939Z,12.40
2023-01-04T15:11:55.623Z,10.90
2023-01-04T15:14:23.667Z,9.18
2023-01-04T15:16:50.864Z,9.88
2023-01-04T15:19:18.140Z,7.18
2023-01-04T15:21:45.836Z,11.73
2023-01-04T15:24:12.971Z,8.60
2023-01-04T15:26:41.134Z,9.05
2023-01-04T15:29:10.118Z,11.63
2023-01-04T15:31:40.329Z,9.07
2023-01-04T15:34:10.520Z,10.43
2023-01-04T15:36:41.440Z,11.05
2023-01-04T15:39:13.345Z,11.25
2023-01-04T15:42:02.426Z,9.52
2023-01-04T15:44:35.629Z,14.10
2023-01-04T15:47:03.148Z,10.18
2023-01-04T15:49:31.056Z,13.80
2023-01-04T15:52:00.631Z,16.67
2023-01-04T15:54:29.200Z,9.43
2023-01-04T15:56:56.917Z,10.38
2023-01-04T15:59:33.602Z,12.70
2023-01-04T16:02:01.154Z,8.95
2023-01-04T16:04:29.365Z,10.85
2023-01-04T16:07:07.224Z,10.57
2023-01-04T16:09:38.131Z,13.70
2023-01-04T16:12:24.425Z,13.35
2023-01-04T16:14:52.015Z,10.38
2023-01-04T16:17:19.617Z,9.30
2023-01-04T16:19:47.237Z,6.82
2023-01-04T16:22:14.783Z,8.98
2023-01-04T16:27:35.352Z,7.45
2023-01-04T16:30:04.407Z,8.00
2023-01-04T16:32:32.665Z,9.07
2023-01-04T16:35:05.628Z,11.13
2023-01-04T16:37:32.791Z,7.32
2023-01-04T16:40:09.887Z,6.90
2023-01-04T16:42:38.823Z,7.70
2023-01-04T16:45:11.215Z,9.68
2023-01-04T16:47:41.216Z,10.32
2023-01-04T16:50:12.683Z,10.18
2023-01-04T16:52:40.942Z,9.13
2023-01-04T16:55:11.114Z,10.05
2023-01-04T16:57:38.480Z,10.82
2023-01-04T17:00:07.136Z,9.35
2023-01-04T17:02:34.365Z,8.77
2023-01-04T17:05:02.075Z,9.15
2023-01-04T17:07:33.321Z,10.25
2023-01-04T17:10:01.417Z,10.52
2023-01-04T17:12:48.461Z,9.63
2023-01-04T17:15:46.063Z,16.23
2023-01-04T17:18:04.723Z,11.27
2023-01-04T17:20:32.150Z,12.70
2023-01-04T17:22:59.478Z,9.43
2023-01-04T17:25:26.659Z,12.80
2023-01-04T17:27:53.799Z,8.93
2023-01-04T17:30:21.162Z,9.18
2023-01-04T17:32:48.523Z,7.68
2023-01-04T17:35:15.833Z,6.85
2023-01-04T17:37:42.960Z,8.90
2023-01-04T17:40:11.121Z,8.38
2023-01-04T17:42:41.263Z,11.65
2023-01-04T17:45:08.985Z,9.75
2023-01-04T17:47:36.396Z,9.88
2023-01-04T17:50:04.206Z,10.43
2023-01-04T17:52:31.782Z,8.73
2023-01-04T17:54:59.652Z,8.55
2023-01-04T17:57:30.034Z,9.63
2023-01-04T17:59:57.367Z,9.38
2023-01-04T18:02:24.843Z,8.50
2023-01-04T18:04:53.217Z,6.90
2023-01-04T18:07:25.626Z,4.80
2023-01-04T18:09:53.245Z,6.07
2023-01-04T18:12:21.978Z,4.07
2023-01-04T18:14:49.362Z,2.83
2023-01-04T18:17:16.975Z,5.25
2023-01-04T18:19:46.494Z,3.35
2023-01-04T18:22:13.926Z,3.47
2023-01-04T18:24:41.926Z,2.92
2023-01-04T18:27:23.197Z,2.85
2023-01-04T18:29:52.330Z,3.33
2023-01-04T18:32:20.261Z,3.88
2023-01-04T18:34:47.926Z,4.07
2023-01-04T18:37:16.279Z,4.90
2023-01-04T18:39:43.721Z,4.05
2023-01-04T18:42:11.046Z,4.60
2023-01-04T18:44:44.161Z,4.35
2023-01-04T18:47:15.279Z,5.05
2023-01-04T18:49:42.414Z,4.45
2023-01-04T18:52:09.588Z,5.10
2023-01-04T18:54:36.934Z,3.35
2023-01-04T18:57:05.424Z,5.10
2023-01-04T18:59:33.103Z,4.60
2023-01-04T19:02:03.729Z,4.38
2023-01-04T19:04:34.752Z,3.95
2023-01-04T19:07:02.425Z,3.58
2023-01-04T19:09:29.659Z,4.05
2023-01-04T19:11:57.174Z,4.03
2023-01-04T19:14:24.616Z,5.07
2023-01-04T19:16:53.477Z,3.08
2023-01-04T19:19:20.900Z,3.83
2023-01-04T19:21:48.259Z,5.65
2023-01-04T19:24:15.503Z,6.30
2023-01-04T19:26:42.918Z,3.30
2023-01-04T19:29:11.031Z,4.97
2023-01-04T19:31:39.002Z,3.47
2023-01-04T19:34:09.346Z,4.80
2023-01-04T19:36:36.954Z,3.70
2023-01-04T19:39:07.889Z,3.85
2023-01-04T19:41:37.804Z,3.67
2023-01-04T19:44:07.639Z,3.03
2023-01-04T19:46:37.789Z,3.50
2023-01-04T19:49:12.411Z,4.07
2023-01-04T19:51:46.486Z,6.00
2023-01-04T19:54:14.084Z,4.65
2023-01-04T19:56:41.485Z,3.08
2023-01-04T19:59:09.007Z,3.50
2023-01-04T20:01:36.663Z,3.10
2023-01-04T20:04:04.937Z,4.07
2023-01-04T20:06:33.177Z,2.80
2023-01-04T20:09:01.646Z,4.13
2023-01-04T20:11:29.169Z,4.90
2023-01-04T20:13:56.791Z,2.67
2023-01-04T20:16:24.644Z,3.78
2023-01-04T20:18:55.239Z,2.22
2023-01-04T20:21:22.871Z,4.90
2023-01-04T20:23:50.179Z,3.63
2023-01-04T20:26:19.491Z,3.70
2023-01-04T20:28:46.595Z,3.22
2023-01-04T20:31:16.315Z,3.33
2023-01-04T20:33:43.530Z,2.88
2023-01-04T20:36:19.549Z,2.97
2023-01-04T20:38:48.039Z,3.45
2023-01-04T20:41:17.657Z,3.67
2023-01-04T20:43:47.275Z,4.43
2023-01-04T20:46:20.446Z,3.00
2023-01-04T20:48:48.254Z,3.30
2023-01-04T20:51:18.536Z,4.00
2023-01-04T20:53:46.228Z,2.92
2023-01-04T20:56:16.390Z,5.72
2023-01-04T20:58:46.007Z,3.38
2023-01-04T21:01:14.761Z,4.63
2023-01-04T21:03:42.864Z,5.35
2023-01-04T21:06:14.186Z,6.05
2023-01-04T21:08:43.052Z,2.17
2023-01-04T21:11:11.787Z,2.85
2023-01-04T21:13:39.525Z,2.65
2023-01-04T21:16:07.027Z,3.83
2023-01-04T21:18:34.418Z,3.35
2023-01-04T21:21:10.024Z,5.57
2023-01-04T21:23:38.478Z,2.72
2023-01-04T21:26:12.461Z,2.58
2023-01-04T21:28:39.720Z,2.70
2023-01-04T21:31:22.182Z,4.40
2023-01-04T21:33:50.613Z,2.10
2023-01-04T21:36:26.707Z,2.50
2023-01-04T21:38:56.901Z,2.13
2023-01-04T21:41:28.135Z,3.08
2023-01-04T21:43:57.674Z,1.50
2023-01-04T21:46:25.812Z,3.55
2023-01-04T21:48:56.160Z,2.08
2023-01-04T21:51:23.563Z,1.70
2023-01-04T21:53:51.377Z,1.55
2023-01-04T21:56:20.298Z,2.90
2023-01-04T21:58:48.124Z,1.60
2023-01-04T22:01:18.191Z,1.75
2023-01-04T22:03:45.959Z,2.38
2023-01-04T22:06:14.432Z,2.28
2023-01-04T22:08:46.640Z,2.72
2023-01-04T22:11:15.333Z,1.70
2023-01-04T22:13:43.345Z,2.85
2023-01-04T22:16:15.980Z,2.50
2023-01-04T22:18:49.488Z,1.60
2023-01-04T22:21:23.968Z,2.22
2023-01-04T22:23:51.949Z,3.38
2023-01-04T22:26:20.363Z,2.17
2023-01-04T22:28:47.973Z,2.88
2023-01-04T22:31:15.946Z,2.30
2023-01-04T22:33:43.507Z,2.10
2023-01-04T22:36:22.330Z,2.00
2023-01-04T22:38:55.587Z,2.30
2023-01-04T22:41:25.213Z,2.30
2023-01-04T22:44:01.626Z,2.90
2023-01-04T22:46:29.984Z,1.77
2023-01-04T22:48:57.989Z,2.00
2023-01-04T22:51:27.703Z,2.65
2023-01-04T22:54:00.134Z,1.92
2023-01-04T22:56:28.515Z,3.92
2023-01-04T22:58:57.254Z,1.70
2023-01-04T23:01:27.414Z,1.95
2023-01-04T23:03:55.913Z,3.75
2023-01-04T23:06:24.859Z,1.88
2023-01-04T23:09:04.255Z,2.05
2023-01-04T23:11:33.534Z,1.38
2023-01-04T23:14:03.335Z,1.50
2023-01-04T23:16:33.208Z,2.30
2023-01-04T23:19:05.615Z,1.67
2023-01-04T23:21:33.949Z,2.30
2023-01-04T23:24:02.155Z,2.05
2023-01-04T23:26:30.500Z,3.25
2023-01-04T23:28:58.171Z,2.30
2023-01-04T23:31:27.610Z,1.90
2023-01-04T23:33:57.227Z,1.77
2023-01-04T23:36:31.367Z,2.60
2023-01-04T23:39:01.564Z,4.35
2023-01-04T23:41:47.878Z,3.60
2023-01-04T23:44:26.697Z,2.15
2023-01-04T23:46:56.679Z,2.15
2023-01-04T23:49:25.982Z,1.92
2023-01-04T23:51:54.267Z,2.42
2023-01-04T23:54:22.334Z,4.68
2023-01-04T23:56:49.792Z,4.30
2023-01-04T23:59:16.956Z,2.72
